sensor_id;sensor_type;location;lat;lon;timestamp;pressure;altitude;pressure_sealevel;temperature;humidity
49030;BME280;43337;52.070;4.508;2022-12-18T00:00:42;102951.63;;;-3.73;100.00
49030;BME280;43337;52.070;4.508;2022-12-18T00:03:07;102944.72;;;-3.74;100.00
49030;BME280;43337;52.070;4.508;2022-12-18T00:05:33;102918.31;;;-3.88;100.00
49030;BME280;43337;52.070;4.508;2022-12-18T00:07:58;102938.69;;;-3.75;100.00
49030;BME280;43337;52.070;4.508;2022-12-18T00:10:24;102945.03;;;-3.68;100.00
49030;BME280;43337;52.070;4.508;2022-12-18T00:12:49;102919.56;;;-3.80;100.00
49030;BME280;43337;52.070;4.508;2022-12-18T00:15:15;102917.94;;;-3.78;100.00
49030;BME280;43337;52.070;4.508;2022-12-18T00:17:40;102935.03;;;-3.62;100.00
49030;BME280;43337;52.070;4.508;2022-12-18T00:20:06;102933.22;;;-3.64;100.00
49030;BME280;43337;52.070;4.508;2022-12-18T00:22:31;102908.47;;;-3.79;100.00
49030;BME280;43337;52.070;4.508;2022-12-18T00:24:57;102938.09;;;-3.69;100.00
49030;BME280;43337;52.070;4.508;2022-12-18T00:27:22;102928.47;;;-3.73;100.00
49030;BME280;43337;52.070;4.508;2022-12-18T00:29:48;102933.09;;;-3.66;100.00
49030;BME280;43337;52.070;4.508;2022-12-18T00:32:14;102930.25;;;-3.72;100.00
49030;BME280;43337;52.070;4.508;2022-12-18T00:34:39;102936.44;;;-3.69;100.00
49030;BME280;43337;52.070;4.508;2022-12-18T00:37:04;102927.75;;;-3.71;100.00
49030;BME280;43337;52.070;4.508;2022-12-18T00:39:30;102940.53;;;-3.72;100.00
49030;BME280;43337;52.070;4.508;2022-12-18T00:41:55;102912.13;;;-3.91;100.00
49030;BME280;43337;52.070;4.508;2022-12-18T00:44:39;102935.13;;;-3.77;100.00
49030;BME280;43337;52.070;4.508;2022-12-18T00:47:04;102911.38;;;-3.89;100.00
49030;BME280;43337;52.070;4.508;2022-12-18T00:49:29;102936.06;;;-3.76;100.00
49030;BME280;43337;52.070;4.508;2022-12-18T00:51:55;102942.88;;;-3.77;100.00
49030;BME280;43337;52.070;4.508;2022-12-18T00:54:20;102941.97;;;-3.77;100.00
49030;BME280;43337;52.070;4.508;2022-12-18T00:56:46;102949.97;;;-3.73;100.00
49030;BME280;43337;52.070;4.508;2022-12-18T00:59:11;102936.06;;;-3.76;100.00
49030;BME280;43337;52.070;4.508;2022-12-18T01:01:37;102925.44;;;-3.82;100.00
49030;BME280;43337;52.070;4.508;2022-12-18T01:04:02;102942.16;;;-3.74;100.00
49030;BME280;43337;52.070;4.508;2022-12-18T01:06:28;102942.09;;;-3.76;100.00
49030;BME280;43337;52.070;4.508;2022-12-18T01:08:54;102931.91;;;-3.90;100.00
49030;BME280;43337;52.070;4.508;2022-12-18T01:11:20;102928.50;;;-3.89;100.00
49030;BME280;43337;52.070;4.508;2022-12-18T01:13:46;102941.53;;;-3.86;100.00
49030;BME280;43337;52.070;4.508;2022-12-18T01:16:15;102953.09;;;-3.78;100.00
49030;BME280;43337;52.070;4.508;2022-12-18T01:18:41;102947.06;;;-3.79;100.00
49030;BME280;43337;52.070;4.508;2022-12-18T01:21:08;102960.00;;;-3.77;100.00
49030;BME280;43337;52.070;4.508;2022-12-18T01:23:33;102958.97;;;-3.81;100.00
49030;BME280;43337;52.070;4.508;2022-12-18T01:26:04;102960.00;;;-3.77;100.00
49030;BME280;43337;52.070;4.508;2022-12-18T01:28:30;102948.28;;;-3.88;100.00
49030;BME280;43337;52.070;4.508;2022-12-18T01:30:55;102939.69;;;-3.89;100.00
49030;BME280;43337;52.070;4.508;2022-12-18T01:33:20;102950.06;;;-3.87;100.00
49030;BME280;43337;52.070;4.508;2022-12-18T01:35:46;102963.22;;;-3.81;100.00
49030;BME280;43337;52.070;4.508;2022-12-18T01:38:11;102941.97;;;-3.95;100.00
49030;BME280;43337;52.070;4.508;2022-12-18T01:40:36;102950.84;;;-3.88;100.00
49030;BME280;43337;52.070;4.508;2022-12-18T01:43:02;102957.69;;;-3.89;100.00
49030;BME280;43337;52.070;4.508;2022-12-18T01:45:30;102946.06;;;-3.99;100.00
49030;BME280;43337;52.070;4.508;2022-12-18T01:48:02;102937.78;;;-4.09;100.00
49030;BME280;43337;52.070;4.508;2022-12-18T01:53:02;102959.75;;;-4.00;100.00
49030;BME280;43337;52.070;4.508;2022-12-18T01:55:31;102948.78;;;-4.12;100.00
49030;BME280;43337;52.070;4.508;2022-12-18T01:57:58;102981.97;;;-4.00;100.00
49030;BME280;43337;52.070;4.508;2022-12-18T02:00:25;102967.94;;;-4.07;100.00
49030;BME280;43337;52.070;4.508;2022-12-18T02:02:52;102973.09;;;-4.07;100.00
49030;BME280;43337;52.070;4.508;2022-12-18T02:05:26;102976.38;;;-4.09;100.00
49030;BME280;43337;52.070;4.508;2022-12-18T02:08:11;102980.88;;;-4.05;100.00
49030;BME280;43337;52.070;4.508;2022-12-18T02:10:47;102982.91;;;-4.00;100.00
49030;BME280;43337;52.070;4.508;2022-12-18T02:13:32;102978.22;;;-4.07;100.00
49030;BME280;43337;52.070;4.508;2022-12-18T02:18:48;102968.31;;;-4.15;100.00
49030;BME280;43337;52.070;4.508;2022-12-18T02:24:33;102983.28;;;-4.08;100.00
49030;BME280;43337;52.070;4.508;2022-12-18T02:27:03;102976.03;;;-4.15;100.00
49030;BME280;43337;52.070;4.508;2022-12-18T02:29:34;102953.00;;;-4.30;100.00
49030;BME280;43337;52.070;4.508;2022-12-18T02:32:06;102980.63;;;-4.10;100.00
49030;BME280;43337;52.070;4.508;2022-12-18T02:34:37;102964.41;;;-4.25;100.00
49030;BME280;43337;52.070;4.508;2022-12-18T02:37:05;102975.25;;;-4.14;100.00
49030;BME280;43337;52.070;4.508;2022-12-18T02:39:33;102965.53;;;-4.20;100.00
49030;BME280;43337;52.070;4.508;2022-12-18T02:42:00;102954.34;;;-4.21;100.00
49030;BME280;43337;52.070;4.508;2022-12-18T02:44:32;102930.59;;;-4.33;100.00
49030;BME280;43337;52.070;4.508;2022-12-18T02:46:58;102919.09;;;-4.39;100.00
49030;BME280;43337;52.070;4.508;2022-12-18T02:49:30;102944.94;;;-4.20;100.00
49030;BME280;43337;52.070;4.508;2022-12-18T02:54:48;102936.19;;;-4.24;100.00
49030;BME280;43337;52.070;4.508;2022-12-18T02:57:25;102915.69;;;-4.38;100.00
49030;BME280;43337;52.070;4.508;2022-12-18T03:00:13;102933.44;;;-4.27;100.00
49030;BME280;43337;52.070;4.508;2022-12-18T03:02:54;102930.00;;;-4.27;100.00
49030;BME280;43337;52.070;4.508;2022-12-18T03:05:30;102908.81;;;-4.39;100.00
49030;BME280;43337;52.070;4.508;2022-12-18T03:07:58;102916.84;;;-4.33;100.00
49030;BME280;43337;52.070;4.508;2022-12-18T03:10:29;102907.69;;;-4.45;100.00
49030;BME280;43337;52.070;4.508;2022-12-18T03:13:06;102909.78;;;-4.37;100.00
49030;BME280;43337;52.070;4.508;2022-12-18T03:15:45;102913.41;;;-4.34;100.00
49030;BME280;43337;52.070;4.508;2022-12-18T03:18:32;102919.59;;;-4.30;100.00
49030;BME280;43337;52.070;4.508;2022-12-18T03:21:03;102905.41;;;-4.38;100.00
49030;BME280;43337;52.070;4.508;2022-12-18T03:23:35;102923.69;;;-4.34;100.00
49030;BME280;43337;52.070;4.508;2022-12-18T03:26:08;102930.41;;;-4.36;100.00
49030;BME280;43337;52.070;4.508;2022-12-18T03:28:39;102893.06;;;-4.62;100.00
49030;BME280;43337;52.070;4.508;2022-12-18T03:31:09;102915.00;;;-4.52;100.00
49030;BME280;43337;52.070;4.508;2022-12-18T03:33:53;102912.25;;;-4.55;100.00
49030;BME280;43337;52.070;4.508;2022-12-18T03:36:19;102910.34;;;-4.59;100.00
49030;BME280;43337;52.070;4.508;2022-12-18T03:38:44;102913.97;;;-4.56;100.00
49030;BME280;43337;52.070;4.508;2022-12-18T03:50:12;102918.75;;;-4.62;100.00
49030;BME280;43337;52.070;4.508;2022-12-18T03:52:39;102893.41;;;-4.72;100.00
49030;BME280;43337;52.070;4.508;2022-12-18T03:55:08;102888.91;;;-4.76;100.00
49030;BME280;43337;52.070;4.508;2022-12-18T03:57:35;102912.44;;;-4.69;100.00
49030;BME280;43337;52.070;4.508;2022-12-18T04:00:08;102896.69;;;-4.75;100.00
49030;BME280;43337;52.070;4.508;2022-12-18T04:02:37;102896.50;;;-4.78;100.00
49030;BME280;43337;52.070;4.508;2022-12-18T04:05:05;102896.59;;;-4.76;100.00
49030;BME280;43337;52.070;4.508;2022-12-18T04:07:32;102885.81;;;-4.85;100.00
49030;BME280;43337;52.070;4.508;2022-12-18T04:09:59;102905.44;;;-4.71;100.00
49030;BME280;43337;52.070;4.508;2022-12-18T04:12:29;102914.66;;;-4.75;100.00
49030;BME280;43337;52.070;4.508;2022-12-18T04:14:54;102906.78;;;-4.78;100.00
49030;BME280;43337;52.070;4.508;2022-12-18T04:17:20;102908.00;;;-4.87;100.00
49030;BME280;43337;52.070;4.508;2022-12-18T04:19:47;102899.53;;;-5.01;100.00
49030;BME280;43337;52.070;4.508;2022-12-18T04:22:13;102919.53;;;-4.96;100.00
49030;BME280;43337;52.070;4.508;2022-12-18T04:24:38;102916.63;;;-5.02;100.00
49030;BME280;43337;52.070;4.508;2022-12-18T04:27:04;102894.53;;;-5.14;100.00
49030;BME280;43337;52.070;4.508;2022-12-18T04:29:29;102919.72;;;-5.07;100.00
49030;BME280;43337;52.070;4.508;2022-12-18T04:31:55;102897.75;;;-5.19;100.00
49030;BME280;43337;52.070;4.508;2022-12-18T04:34:20;102900.44;;;-5.16;100.00
49030;BME280;43337;52.070;4.508;2022-12-18T04:36:46;102895.94;;;-5.20;100.00
49030;BME280;43337;52.070;4.508;2022-12-18T04:39:11;102908.00;;;-5.19;100.00
49030;BME280;43337;52.070;4.508;2022-12-18T04:41:37;102897.22;;;-5.28;100.00
49030;BME280;43337;52.070;4.508;2022-12-18T04:44:02;102932.31;;;-5.12;100.00
49030;BME280;43337;52.070;4.508;2022-12-18T04:46:28;102930.47;;;-5.14;100.00
49030;BME280;43337;52.070;4.508;2022-12-18T04:48:53;102895.03;;;-5.36;100.00
49030;BME280;43337;52.070;4.508;2022-12-18T04:51:19;102913.41;;;-5.29;100.00
49030;BME280;43337;52.070;4.508;2022-12-18T04:53:44;102909.34;;;-5.25;100.00
49030;BME280;43337;52.070;4.508;2022-12-18T04:56:12;102913.16;;;-5.19;100.00
49030;BME280;43337;52.070;4.508;2022-12-18T04:58:39;102914.81;;;-5.19;100.00
49030;BME280;43337;52.070;4.508;2022-12-18T05:01:06;102914.72;;;-5.21;100.00
49030;BME280;43337;52.070;4.508;2022-12-18T05:03:33;102894.16;;;-5.37;100.00
49030;BME280;43337;52.070;4.508;2022-12-18T05:05:59;102888.75;;;-5.42;100.00
49030;BME280;43337;52.070;4.508;2022-12-18T05:08:24;102903.69;;;-5.34;100.00
49030;BME280;43337;52.070;4.508;2022-12-18T05:10:49;102912.91;;;-5.38;100.00
49030;BME280;43337;52.070;4.508;2022-12-18T05:13:15;102922.56;;;-5.34;100.00
49030;BME280;43337;52.070;4.508;2022-12-18T05:15:40;102908.38;;;-5.42;100.00
49030;BME280;43337;52.070;4.508;2022-12-18T05:18:07;102924.69;;;-5.42;100.00
49030;BME280;43337;52.070;4.508;2022-12-18T05:20:33;102917.78;;;-5.43;100.00
49030;BME280;43337;52.070;4.508;2022-12-18T05:22:58;102917.69;;;-5.44;100.00
49030;BME280;43337;52.070;4.508;2022-12-18T05:25:24;102918.56;;;-5.44;100.00
49030;BME280;43337;52.070;4.508;2022-12-18T05:27:49;102892.84;;;-5.60;100.00
49030;BME280;43337;52.070;4.508;2022-12-18T05:30:15;102915.56;;;-5.51;100.00
49030;BME280;43337;52.070;4.508;2022-12-18T05:32:41;102886.41;;;-5.68;100.00
49030;BME280;43337;52.070;4.508;2022-12-18T05:35:08;102911.50;;;-5.62;100.00
49030;BME280;43337;52.070;4.508;2022-12-18T05:37:35;102892.31;;;-5.69;100.00
49030;BME280;43337;52.070;4.508;2022-12-18T05:40:01;102878.91;;;-5.80;100.00
49030;BME280;43337;52.070;4.508;2022-12-18T05:42:26;102892.00;;;-5.75;100.00
49030;BME280;43337;52.070;4.508;2022-12-18T05:44:51;102885.09;;;-5.76;100.00
49030;BME280;43337;52.070;4.508;2022-12-18T05:47:17;102871.91;;;-5.82;100.00
49030;BME280;43337;52.070;4.508;2022-12-18T05:49:42;102872.88;;;-5.80;99.86
49030;BME280;43337;52.070;4.508;2022-12-18T05:52:08;102877.28;;;-5.78;100.00
49030;BME280;43337;52.070;4.508;2022-12-18T05:54:34;102887.47;;;-5.79;100.00
49030;BME280;43337;52.070;4.508;2022-12-18T05:56:59;102892.16;;;-5.72;100.00
49030;BME280;43337;52.070;4.508;2022-12-18T05:59:24;102886.50;;;-5.81;100.00
49030;BME280;43337;52.070;4.508;2022-12-18T06:01:50;102895.44;;;-5.75;100.00
49030;BME280;43337;52.070;4.508;2022-12-18T06:04:15;102890.75;;;-5.82;100.00
49030;BME280;43337;52.070;4.508;2022-12-18T06:06:41;102889.06;;;-5.81;99.94
49030;BME280;43337;52.070;4.508;2022-12-18T06:09:06;102888.34;;;-5.79;100.00
49030;BME280;43337;52.070;4.508;2022-12-18T06:11:38;102867.88;;;-5.94;99.80
49030;BME280;43337;52.070;4.508;2022-12-18T06:14:05;102889.94;;;-5.81;99.84
49030;BME280;43337;52.070;4.508;2022-12-18T06:16:31;102862.03;;;-5.91;99.45
49030;BME280;43337;52.070;4.508;2022-12-18T06:19:01;102858.72;;;-5.89;100.00
49030;BME280;43337;52.070;4.508;2022-12-18T06:21:27;102858.09;;;-5.84;99.68
49030;BME280;43337;52.070;4.508;2022-12-18T06:23:53;102841.34;;;-5.94;99.90
49030;BME280;43337;52.070;4.508;2022-12-18T06:26:18;102842.84;;;-5.98;99.65
49030;BME280;43337;52.070;4.508;2022-12-18T06:28:44;102868.28;;;-5.86;99.35
49030;BME280;43337;52.070;4.508;2022-12-18T06:31:10;102836.66;;;-6.01;99.37
49030;BME280;43337;52.070;4.508;2022-12-18T06:33:36;102839.66;;;-5.94;99.59
49030;BME280;43337;52.070;4.508;2022-12-18T06:36:08;102852.00;;;-5.86;99.08
49030;BME280;43337;52.070;4.508;2022-12-18T06:38:35;102854.59;;;-5.86;99.21
49030;BME280;43337;52.070;4.508;2022-12-18T06:41:16;102829.97;;;-5.99;99.46
49030;BME280;43337;52.070;4.508;2022-12-18T06:43:42;102844.94;;;-5.91;99.57
49030;BME280;43337;52.070;4.508;2022-12-18T06:46:08;102838.78;;;-5.94;99.27
49030;BME280;43337;52.070;4.508;2022-12-18T06:48:34;102809.78;;;-6.08;98.82
49030;BME280;43337;52.070;4.508;2022-12-18T06:50:59;102822.97;;;-6.02;98.74
49030;BME280;43337;52.070;4.508;2022-12-18T06:53:25;102800.88;;;-6.15;98.82
49030;BME280;43337;52.070;4.508;2022-12-18T06:55:50;102831.03;;;-5.96;99.11
49030;BME280;43337;52.070;4.508;2022-12-18T06:58:16;102824.97;;;-5.96;98.84
49030;BME280;43337;52.070;4.508;2022-12-18T07:00:41;102815.53;;;-5.97;98.97
49030;BME280;43337;52.070;4.508;2022-12-18T07:03:07;102812.09;;;-5.98;98.82
49030;BME280;43337;52.070;4.508;2022-12-18T07:05:32;102810.94;;;-6.03;98.90
49030;BME280;43337;52.070;4.508;2022-12-18T07:07:58;102802.19;;;-6.06;99.04
49030;BME280;43337;52.070;4.508;2022-12-18T07:10:23;102810.16;;;-6.02;98.77
49030;BME280;43337;52.070;4.508;2022-12-18T07:12:49;102805.72;;;-6.04;98.88
49030;BME280;43337;52.070;4.508;2022-12-18T07:15:14;102780.19;;;-6.18;98.32
49030;BME280;43337;52.070;4.508;2022-12-18T07:17:40;102795.47;;;-6.04;98.60
49030;BME280;43337;52.070;4.508;2022-12-18T07:20:05;102780.00;;;-6.06;98.39
49030;BME280;43337;52.070;4.508;2022-12-18T07:22:31;102764.44;;;-6.09;98.37
49030;BME280;43337;52.070;4.508;2022-12-18T07:24:56;102762.88;;;-6.07;98.60
49030;BME280;43337;52.070;4.508;2022-12-18T07:27:22;102742.69;;;-6.16;98.71
49030;BME280;43337;52.070;4.508;2022-12-18T07:29:47;102720.63;;;-6.28;98.64
49030;BME280;43337;52.070;4.508;2022-12-18T07:32:13;102736.69;;;-6.16;98.60
49030;BME280;43337;52.070;4.508;2022-12-18T07:34:38;102754.25;;;-6.07;98.85
49030;BME280;43337;52.070;4.508;2022-12-18T07:37:04;102714.06;;;-6.23;98.28
49030;BME280;43337;52.070;4.508;2022-12-18T07:39:29;102718.69;;;-6.18;98.68
49030;BME280;43337;52.070;4.508;2022-12-18T07:41:55;102741.38;;;-6.09;98.60
49030;BME280;43337;52.070;4.508;2022-12-18T07:44:39;102748.25;;;-6.08;98.82
49030;BME280;43337;52.070;4.508;2022-12-18T07:47:04;102756.22;;;-6.03;98.75
49030;BME280;43337;52.070;4.508;2022-12-18T07:49:30;102753.50;;;-6.06;98.73
49030;BME280;43337;52.070;4.508;2022-12-18T07:51:56;102730.44;;;-6.21;98.18
49030;BME280;43337;52.070;4.508;2022-12-18T07:54:23;102739.50;;;-6.11;98.34
49030;BME280;43337;52.070;4.508;2022-12-18T07:56:48;102752.69;;;-6.05;98.95
49030;BME280;43337;52.070;4.508;2022-12-18T07:59:14;102728.31;;;-6.13;98.49
49030;BME280;43337;52.070;4.508;2022-12-18T08:01:39;102728.19;;;-6.15;98.31
49030;BME280;43337;52.070;4.508;2022-12-18T08:04:05;102758.88;;;-6.02;98.47
49030;BME280;43337;52.070;4.508;2022-12-18T08:06:30;102760.44;;;-6.04;98.78
49030;BME280;43337;52.070;4.508;2022-12-18T08:08:56;102743.88;;;-6.10;98.77
49030;BME280;43337;52.070;4.508;2022-12-18T08:11:23;102731.56;;;-6.16;98.07
49030;BME280;43337;52.070;4.508;2022-12-18T08:13:49;102726.38;;;-6.18;97.91
49030;BME280;43337;52.070;4.508;2022-12-18T08:16:15;102723.81;;;-6.18;98.03
49030;BME280;43337;52.070;4.508;2022-12-18T08:18:40;102736.06;;;-6.12;98.13
49030;BME280;43337;52.070;4.508;2022-12-18T08:21:11;102738.09;;;-6.06;98.33
49030;BME280;43337;52.070;4.508;2022-12-18T08:23:37;102732.97;;;-6.06;98.01
49030;BME280;43337;52.070;4.508;2022-12-18T08:26:03;102724.06;;;-6.13;98.23
49030;BME280;43337;52.070;4.508;2022-12-18T08:28:29;102737.13;;;-6.08;98.51
49030;BME280;43337;52.070;4.508;2022-12-18T08:30:54;102732.00;;;-6.08;98.08
49030;BME280;43337;52.070;4.508;2022-12-18T08:33:19;102727.84;;;-6.06;98.30
49030;BME280;43337;52.070;4.508;2022-12-18T08:35:45;102700.06;;;-6.30;98.60
49030;BME280;43337;52.070;4.508;2022-12-18T08:38:10;102673.38;;;-6.48;98.19
49030;BME280;43337;52.070;4.508;2022-12-18T08:40:35;102769.13;;;-6.02;98.38
49030;BME280;43337;52.070;4.508;2022-12-18T08:43:01;102757.56;;;-6.10;98.14
49030;BME280;43337;52.070;4.508;2022-12-18T08:45:45;102783.69;;;-6.01;98.39
49030;BME280;43337;52.070;4.508;2022-12-18T08:48:10;102788.19;;;-5.97;98.19
49030;BME280;43337;52.070;4.508;2022-12-18T08:50:35;102785.31;;;-6.03;98.29
49030;BME280;43337;52.070;4.508;2022-12-18T08:53:01;102775.22;;;-6.00;98.31
49030;BME280;43337;52.070;4.508;2022-12-18T08:55:26;102757.38;;;-5.98;98.26
49030;BME280;43337;52.070;4.508;2022-12-18T08:57:51;102780.22;;;-5.86;98.86
49030;BME280;43337;52.070;4.508;2022-12-18T09:00:17;102787.28;;;-5.82;98.48
49030;BME280;43337;52.070;4.508;2022-12-18T09:02:42;102789.13;;;-5.80;98.42
49030;BME280;43337;52.070;4.508;2022-12-18T09:05:08;102790.97;;;-5.77;98.57
49030;BME280;43337;52.070;4.508;2022-12-18T09:07:34;102779.94;;;-5.76;98.56
49030;BME280;43337;52.070;4.508;2022-12-18T09:09:59;102774.53;;;-5.81;98.53
49030;BME280;43337;52.070;4.508;2022-12-18T09:12:26;102778.25;;;-5.76;98.47
49030;BME280;43337;52.070;4.508;2022-12-18T09:14:51;102744.38;;;-5.85;98.28
49030;BME280;43337;52.070;4.508;2022-12-18T09:17:17;102737.84;;;-5.80;97.88
49030;BME280;43337;52.070;4.508;2022-12-18T09:19:42;102720.19;;;-5.74;98.17
49030;BME280;43337;52.070;4.508;2022-12-18T09:22:08;102720.72;;;-5.65;97.84
49030;BME280;43337;52.070;4.508;2022-12-18T09:24:34;102721.75;;;-5.61;98.37
49030;BME280;43337;52.070;4.508;2022-12-18T09:27:00;102705.69;;;-5.73;98.45
49030;BME280;43337;52.070;4.508;2022-12-18T09:29:25;102727.03;;;-5.58;98.73
49030;BME280;43337;52.070;4.508;2022-12-18T09:31:50;102717.50;;;-5.60;98.22
49030;BME280;43337;52.070;4.508;2022-12-18T09:34:16;102736.66;;;-5.54;98.46
49030;BME280;43337;52.070;4.508;2022-12-18T09:36:42;102738.69;;;-5.48;98.25
49030;BME280;43337;52.070;4.508;2022-12-18T09:39:07;102726.97;;;-5.43;97.78
49030;BME280;43337;52.070;4.508;2022-12-18T09:44:01;102735.09;;;-5.35;98.29
49030;BME280;43337;52.070;4.508;2022-12-18T09:46:30;102735.31;;;-5.31;98.75
49030;BME280;43337;52.070;4.508;2022-12-18T09:49:02;102749.31;;;-5.26;98.46
49030;BME280;43337;52.070;4.508;2022-12-18T09:51:35;102749.53;;;-5.21;98.42
49030;BME280;43337;52.070;4.508;2022-12-18T09:54:12;102741.19;;;-5.17;98.65
49030;BME280;43337;52.070;4.508;2022-12-18T09:56:41;102747.44;;;-5.12;98.67
49030;BME280;43337;52.070;4.508;2022-12-18T09:59:21;102719.66;;;-5.19;97.94
49030;BME280;43337;52.070;4.508;2022-12-18T10:01:48;102690.25;;;-5.26;97.95
49030;BME280;43337;52.070;4.508;2022-12-18T10:04:13;102716.06;;;-5.06;97.60
49030;BME280;43337;52.070;4.508;2022-12-18T10:07:23;102715.34;;;-5.04;97.73
49030;BME280;43337;52.070;4.508;2022-12-18T10:10:26;102720.72;;;-4.99;98.35
49030;BME280;43337;52.070;4.508;2022-12-18T10:13:42;102718.63;;;-4.90;98.24
49030;BME280;43337;52.070;4.508;2022-12-18T10:16:25;102707.69;;;-4.86;98.34
49030;BME280;43337;52.070;4.508;2022-12-18T10:19:11;102711.31;;;-4.82;98.44
49030;BME280;43337;52.070;4.508;2022-12-18T10:24:42;102701.41;;;-4.75;98.43
49030;BME280;43337;52.070;4.508;2022-12-18T10:27:18;102703.31;;;-4.71;98.18
49030;BME280;43337;52.070;4.508;2022-12-18T10:29:47;102698.13;;;-4.72;97.68
49030;BME280;43337;52.070;4.508;2022-12-18T10:32:15;102682.94;;;-4.68;97.88
49030;BME280;43337;52.070;4.508;2022-12-18T10:34:44;102674.19;;;-4.71;98.17
49030;BME280;43337;52.070;4.508;2022-12-18T10:37:19;102674.06;;;-4.56;98.28
49030;BME280;43337;52.070;4.508;2022-12-18T10:39:45;102684.19;;;-4.59;98.38
49030;BME280;43337;52.070;4.508;2022-12-18T10:42:16;102665.97;;;-4.64;98.89
49030;BME280;43337;52.070;4.508;2022-12-18T10:44:42;102685.75;;;-4.45;98.55
49030;BME280;43337;52.070;4.508;2022-12-18T10:47:12;102672.03;;;-4.46;98.27
49030;BME280;43337;52.070;4.508;2022-12-18T10:49:47;102694.78;;;-4.35;97.84
49030;BME280;43337;52.070;4.508;2022-12-18T10:52:21;102667.81;;;-4.44;97.99
49030;BME280;43337;52.070;4.508;2022-12-18T10:54:50;102677.13;;;-4.28;97.86
49030;BME280;43337;52.070;4.508;2022-12-18T10:59:55;102693.81;;;-4.20;98.37
49030;BME280;43337;52.070;4.508;2022-12-18T11:02:34;102668.25;;;-4.17;98.19
49030;BME280;43337;52.070;4.508;2022-12-18T11:05:00;102637.28;;;-4.37;98.36
49030;BME280;43337;52.070;4.508;2022-12-18T11:07:49;102657.16;;;-4.15;98.22
49030;BME280;43337;52.070;4.508;2022-12-18T11:10:22;102667.94;;;-4.05;98.50
49030;BME280;43337;52.070;4.508;2022-12-18T11:12:47;102652.91;;;-4.15;98.60
49030;BME280;43337;52.070;4.508;2022-12-18T11:15:23;102676.09;;;-3.96;99.04
49030;BME280;43337;52.070;4.508;2022-12-18T11:17:51;102672.88;;;-3.91;98.06
49030;BME280;43337;52.070;4.508;2022-12-18T11:22:56;102667.09;;;-3.86;97.44
49030;BME280;43337;52.070;4.508;2022-12-18T11:25:22;102633.41;;;-3.92;97.46
49030;BME280;43337;52.070;4.508;2022-12-18T11:27:56;102645.25;;;-3.76;97.81
49030;BME280;43337;52.070;4.508;2022-12-18T11:30:37;102643.72;;;-3.73;98.21
49030;BME280;43337;52.070;4.508;2022-12-18T11:33:09;102636.97;;;-3.69;98.66
49030;BME280;43337;52.070;4.508;2022-12-18T11:35:58;102617.88;;;-3.74;98.43
49030;BME280;43337;52.070;4.508;2022-12-18T11:44:11;102610.16;;;-3.55;96.94
49030;BME280;43337;52.070;4.508;2022-12-18T11:49:51;102589.06;;;-3.46;97.90
49030;BME280;43337;52.070;4.508;2022-12-18T11:52:21;102573.72;;;-3.45;97.57
49030;BME280;43337;52.070;4.508;2022-12-18T11:54:51;102581.69;;;-3.38;97.71
49030;BME280;43337;52.070;4.508;2022-12-18T11:57:35;102565.56;;;-3.34;98.46
49030;BME280;43337;52.070;4.508;2022-12-18T12:00:18;102565.63;;;-3.33;97.36
49030;BME280;43337;52.070;4.508;2022-12-18T12:05:57;102533.78;;;-3.35;97.28
49030;BME280;43337;52.070;4.508;2022-12-18T12:11:28;102548.06;;;-3.22;96.62
49030;BME280;43337;52.070;4.508;2022-12-18T12:14:17;102542.22;;;-3.18;97.73
49030;BME280;43337;52.070;4.508;2022-12-18T12:25:07;102546.91;;;-3.08;97.80
49030;BME280;43337;52.070;4.508;2022-12-18T12:30:14;102535.81;;;-3.07;96.58
49030;BME280;43337;52.070;4.508;2022-12-18T12:38:30;102516.91;;;-3.07;98.12
49030;BME280;43337;52.070;4.508;2022-12-18T12:41:09;102514.31;;;-3.07;97.91
49030;BME280;43337;52.070;4.508;2022-12-18T12:43:58;102524.09;;;-2.99;97.47
49030;BME280;43337;52.070;4.508;2022-12-18T12:46:26;102517.22;;;-3.00;97.45
49030;BME280;43337;52.070;4.508;2022-12-18T12:51:34;102507.69;;;-3.01;96.98
49030;BME280;43337;52.070;4.508;2022-12-18T12:54:02;102505.19;;;-2.99;97.09
49030;BME280;43337;52.070;4.508;2022-12-18T12:56:40;102501.78;;;-2.98;96.76
49030;BME280;43337;52.070;4.508;2022-12-18T13:07:16;102475.28;;;-2.96;97.77
49030;BME280;43337;52.070;4.508;2022-12-18T13:13:12;102481.78;;;-2.83;97.68
49030;BME280;43337;52.070;4.508;2022-12-18T13:15:45;102485.22;;;-2.82;97.63
49030;BME280;43337;52.070;4.508;2022-12-18T13:18:23;102474.09;;;-2.81;97.01
49030;BME280;43337;52.070;4.508;2022-12-18T13:26:28;102455.97;;;-2.84;97.01
49030;BME280;43337;52.070;4.508;2022-12-18T13:34:21;102436.41;;;-2.79;97.23
49030;BME280;43337;52.070;4.508;2022-12-18T13:36:47;102428.69;;;-2.78;96.22
49030;BME280;43337;52.070;4.508;2022-12-18T13:41:45;102413.19;;;-2.79;96.46
49030;BME280;43337;52.070;4.508;2022-12-18T13:46:50;102416.81;;;-2.74;97.64
49030;BME280;43337;52.070;4.508;2022-12-18T13:49:24;102417.94;;;-2.67;97.73
49030;BME280;43337;52.070;4.508;2022-12-18T13:51:53;102410.25;;;-2.66;97.82
49030;BME280;43337;52.070;4.508;2022-12-18T13:54:43;102415.47;;;-2.64;97.60
49030;BME280;43337;52.070;4.508;2022-12-18T13:57:30;102418.97;;;-2.62;97.31
49030;BME280;43337;52.070;4.508;2022-12-18T13:59:56;102400.13;;;-2.61;97.56
49030;BME280;43337;52.070;4.508;2022-12-18T14:02:27;102376.53;;;-2.72;96.60
49030;BME280;43337;52.070;4.508;2022-12-18T14:04:54;102370.50;;;-2.73;96.73
49030;BME280;43337;52.070;4.508;2022-12-18T14:07:24;102370.53;;;-2.71;96.63
49030;BME280;43337;52.070;4.508;2022-12-18T14:09:52;102390.00;;;-2.55;97.01
49030;BME280;43337;52.070;4.508;2022-12-18T14:12:24;102379.66;;;-2.57;96.87
49030;BME280;43337;52.070;4.508;2022-12-18T14:15:32;102376.13;;;-2.59;96.75
49030;BME280;43337;52.070;4.508;2022-12-18T14:18:12;102381.53;;;-2.53;96.38
49030;BME280;43337;52.070;4.508;2022-12-18T14:20:43;102364.81;;;-2.62;95.75
49030;BME280;43337;52.070;4.508;2022-12-18T14:23:44;102380.72;;;-2.50;95.95
49030;BME280;43337;52.070;4.508;2022-12-18T14:26:25;102378.22;;;-2.49;95.87
49030;BME280;43337;52.070;4.508;2022-12-18T14:28:53;102372.25;;;-2.48;95.76